Terminal Aerodrome Forecast
Issued by NWS

Home | Current Version | Previous Version | Text Only | Print | Product List | Glossary Off
Versions: 1 2 3 4 5 6 7 8 9 10 11 12 13 14 15 16 17 18 19 20 21 22 23 24 25 26 27 28 29 30 31 32 33 34 35 36 37 38 39 40

561
FTUS43 KGRB 181723
TAFATW
TAF
KATW 181723Z 1818/1918 10006KT P6SM FEW120 SCT250
     FM190100 08008KT P6SM SCT100 BKN200
     FM190700 06005KT P6SM VCSH SCT020 OVC040
      TEMPO 1907/1910 5SM -SHRA BR BKN020
     FM191000 03005KT P6SM -SHRA BKN006 OVC012
     FM191600 04009KT P6SM SCT012 BKN025=

USA.gov is the U.S. government's official web portal to all federal, state and local government web resources and services.